Kelsall, United Kingdom
Current Conditions -  °F | °C
As of 12:50 PM on Tuesday 21 Oct 2014 (Local Time) from EGGP Reporting Station
Rain Showers Rain Showers  
Wind Chill: 54°   Ceiling: Unl
Heat Index: 54°   Visibility: 6mi
Dew Point: 39°   Wind: 37mph
Humidity: 58%   Direction: 290°WNW
Pressure: 29.65"   Gusts: 52mph
Location:  53.21°N, 2.71°W
Report Text: EGGP 211150Z 29032G45KT 9999 VCSH SCT030 12/04 Q1004
Loading
Personal Weather Stations






























Interactive Weather Map
Tropical Storm Tracking
New forecast layout! Learn more

10-Day Weather Forecast

Advertisements
Track Severe Weather on mobile